Saguache, CO

2:23 PM MDT on August 21, 2017 (GMT -0600)
Saguache

Weather History for K04V - November, 2013

Change the Weather History Date:

Monday, November 4, 2013

  Actual Average (KALS) Record (KALS)
Temperature  
Mean Temperature 37 °F -  
Max Temperature 51 °F 52 °F 67 °F (1977)
Min Temperature 23 °F 16 °F -13 °F (1991)
Degree Days  
Heating Degree Days 28    
Moisture  
Dew Point 18 °F    
Average Humidity 52    
Maximum Humidity 74    
Minimum Humidity 16    
Precipitation  
Precipitation 0.00 in - - ()
Sea Level Pressure  
Sea Level Pressure 29.93 in    
Wind  
Wind Speed 10 mph (WNW)    
Max Wind Speed 23 mph    
Max Gust Speed 31 mph    
Visibility 10 miles    
Events      
Averages and records for this station are not official NWS values.
T = Trace of Precipitation, MM = Missing Value Source: NWS Daily Summary

Daily Weather History Graph

Daily Weather History Graph

Search for Another Location

Airport or City:

Trip Planner

Search our weather history database for the weather conditions in past years. The results will help you decide how hot, cold, wet, or windy it might be!

Date:

Astronomy

Nov. 04, 2013 Rise Set
Actual Time 6:34 AM MST 5:01 PM MST
Civil Twilight 6:06 AM MST 5:29 PM MST
Nautical Twilight 5:35 AM MST 6:00 PM MST
Astronomical Twilight 5:04 AM MST 6:31 PM MST
Moon 7:46 AM MST (11/4) 6:10 PM MST (11/4)
Length of Visible Light 11h 22m
Length of Day
10h 27m
New Moon, 2% of the Moon is Illuminated
Nov 4
New Moon
Nov 9
First Quarter
Nov 17
Full
Nov 25
Last Quarter
Dec 2
New

Hourly Weather History & Observations

Time (MST) Temp. Windchill Dew Point Humidity Pressure Visibility Wind Dir Wind Speed Gust Speed Precip Events Conditions
12:11 AM 32.0 °F 23.0 °F 23.0 °F 69% 29.90 in 10.0 mi WNW 11.5 mph - N/A   Clear
12:31 AM 32.0 °F 23.6 °F 23.0 °F 69% 29.90 in 10.0 mi NW 10.4 mph - N/A   Clear
12:52 AM 32.0 °F 23.0 °F 23.0 °F 69% 29.91 in 10.0 mi NW 11.5 mph - N/A   Clear
1:12 AM 30.2 °F 26.7 °F 21.2 °F 69% 29.92 in 10.0 mi NW 3.5 mph - N/A   Clear
1:32 AM 28.4 °F - 21.2 °F 74% 29.94 in 10.0 mi Calm Calm - N/A   Clear
1:52 AM 28.4 °F 22.2 °F 21.2 °F 74% 29.94 in 10.0 mi NNW 5.8 mph - N/A   Scattered Clouds
2:12 AM 28.4 °F 17.5 °F 19.4 °F 69% 29.94 in 10.0 mi NNW 13.8 mph - N/A   Scattered Clouds
2:32 AM 28.4 °F 19.7 °F 19.4 °F 69% 29.94 in 10.0 mi NNW 9.2 mph - N/A   Clear
2:51 AM 28.4 °F 19.7 °F 19.4 °F 69% 29.94 in 10.0 mi NW 9.2 mph - N/A   Clear
3:12 AM 26.6 °F 19.1 °F 17.6 °F 69% 29.95 in 10.0 mi NNW 6.9 mph - N/A   Clear
3:32 AM 26.6 °F 17.5 °F 17.6 °F 69% 29.95 in 10.0 mi NW 9.2 mph - N/A   Clear
3:52 AM 23.0 °F 13.1 °F 15.8 °F 74% 29.95 in 10.0 mi NNW 9.2 mph - N/A   Clear
4:12 AM 24.8 °F 14.6 °F 15.8 °F 69% 29.95 in 10.0 mi NNW 10.4 mph - N/A   Clear
4:32 AM 26.6 °F 16.8 °F 17.6 °F 69% 29.95 in 10.0 mi North 10.4 mph - N/A   Clear
4:52 AM 24.8 °F 15.3 °F 15.8 °F 69% 29.96 in 10.0 mi North 9.2 mph - N/A   Clear
5:12 AM 28.4 °F 19.7 °F 17.6 °F 64% 29.96 in 10.0 mi NNW 9.2 mph - N/A   Clear
5:32 AM 26.6 °F 14.7 °F 17.6 °F 69% 29.96 in 10.0 mi NW 15.0 mph - N/A   Clear
5:51 AM 26.6 °F 14.3 °F 17.6 °F 69% 29.96 in 10.0 mi NW 16.1 mph - N/A   Clear
6:12 AM 24.8 °F 13.4 °F 15.8 °F 69% 29.96 in 10.0 mi NNW 12.7 mph - N/A   Clear
6:32 AM 24.8 °F 12.4 °F 15.8 °F 69% 29.97 in 10.0 mi NNW 15.0 mph - N/A   Clear
6:52 AM 24.8 °F 13.4 °F 15.8 °F 69% 29.97 in 10.0 mi NNW 12.7 mph - N/A   Clear
7:12 AM 24.8 °F 14.0 °F 15.8 °F 69% 29.98 in 10.0 mi NNW 11.5 mph - N/A   Clear
7:32 AM 24.8 °F 14.6 °F 15.8 °F 69% 30.00 in 10.0 mi NNW 10.4 mph - N/A   Clear
7:52 AM 24.8 °F 15.3 °F 15.8 °F 69% 30.00 in 10.0 mi NNW 9.2 mph - N/A   Clear
8:11 AM 24.8 °F 14.0 °F 15.8 °F 69% 30.00 in 10.0 mi NW 11.5 mph - N/A   Clear
8:32 AM 28.4 °F 19.1 °F 17.6 °F 64% 30.01 in 10.0 mi NW 10.4 mph - N/A   Clear
8:52 AM 32.0 °F 24.2 °F 17.6 °F 55% 30.00 in 10.0 mi NW 9.2 mph - N/A   Clear
9:12 AM 35.6 °F 31.7 °F 17.6 °F 48% 30.00 in 10.0 mi NW 4.6 mph - N/A   Clear
9:32 AM 37.4 °F 34.9 °F 17.6 °F 45% 30.00 in 10.0 mi NW 3.5 mph - N/A   Clear
9:52 AM 37.4 °F - 17.6 °F 45% 30.00 in 10.0 mi Calm Calm - N/A   Clear
10:12 AM 37.4 °F - 17.6 °F 45% 29.99 in 10.0 mi Calm Calm - N/A   Clear
10:32 AM 42.8 °F 39.3 °F 17.6 °F 36% 29.98 in 10.0 mi SE 5.8 mph - N/A   Clear
10:52 AM 41.0 °F 37.1 °F 17.6 °F 39% 29.98 in 10.0 mi SE 5.8 mph - N/A   Clear
11:12 AM 42.8 °F 40.1 °F 17.6 °F 36% 29.97 in 10.0 mi SSE 4.6 mph - N/A   Clear
11:32 AM 44.6 °F 40.7 °F 17.6 °F 34% 29.96 in 10.0 mi SSE 6.9 mph - N/A   Clear
11:52 AM 46.4 °F 41.5 °F 15.8 °F 29% 29.94 in 10.0 mi South 10.4 mph 17.3 mph N/A   Clear
12:12 PM 46.4 °F 40.7 °F 15.8 °F 29% 29.93 in 10.0 mi South 12.7 mph 17.3 mph N/A   Clear
12:32 PM 46.4 °F 41.1 °F 12.2 °F 25% 29.91 in 10.0 mi South 11.5 mph - N/A   Clear
12:52 PM 48.2 °F - 10.4 °F 22% 29.90 in 10.0 mi South 12.7 mph 20.7 mph N/A   Clear
1:12 PM 48.2 °F - 10.4 °F 22% 29.89 in 10.0 mi SSW 12.7 mph - N/A   Clear
1:32 PM 48.2 °F - 12.2 °F 24% 29.88 in 10.0 mi South 9.2 mph 17.3 mph N/A   Clear
1:52 PM 50.0 °F - 12.2 °F 22% 29.86 in 10.0 mi South 8.1 mph 16.1 mph N/A   Clear
2:12 PM 51.8 °F - 8.6 °F 18% 29.86 in 10.0 mi SSW 12.7 mph 25.3 mph N/A   Clear
2:32 PM 51.8 °F - 6.8 °F 16% 29.84 in 10.0 mi SSW 21.9 mph 31.1 mph N/A   Clear
2:52 PM 51.8 °F - 6.8 °F 16% 29.85 in 10.0 mi SW 23.0 mph 29.9 mph N/A   Clear
3:12 PM 51.8 °F - 8.6 °F 18% 29.85 in 10.0 mi SW 23.0 mph 27.6 mph N/A   Clear
3:32 PM 50.0 °F - 10.4 °F 20% 29.86 in 10.0 mi SW 20.7 mph 27.6 mph N/A   Clear
3:52 PM 48.2 °F - 10.4 °F 22% 29.88 in 10.0 mi SW 17.3 mph 24.2 mph N/A   Clear
4:12 PM 46.4 °F 40.1 °F 12.2 °F 25% 29.88 in 10.0 mi SW 15.0 mph - N/A   Clear
4:32 PM 46.4 °F 39.0 °F 12.2 °F 25% 29.90 in 10.0 mi WSW 19.6 mph 24.2 mph N/A   Clear
4:52 PM 44.6 °F 38.8 °F 12.2 °F 27% 29.90 in 10.0 mi WSW 11.5 mph 18.4 mph N/A   Clear
5:12 PM 42.8 °F 38.6 °F 14.0 °F 31% 29.91 in 10.0 mi WSW 6.9 mph 16.1 mph N/A   Clear
5:32 PM 41.0 °F 38.0 °F 14.0 °F 33% 29.91 in 10.0 mi South 4.6 mph - N/A   Clear
5:52 PM 39.2 °F 35.0 °F 15.8 °F 39% 29.91 in 10.0 mi SSW 5.8 mph - N/A   Clear
6:12 PM 41.0 °F - 17.6 °F 39% 29.91 in 10.0 mi Calm Calm - N/A   Clear
6:31 PM 37.4 °F 34.9 °F 15.8 °F 41% 29.91 in 10.0 mi NNW 3.5 mph - N/A   Clear
6:52 PM 32.0 °F 27.5 °F 14.0 °F 48% 29.91 in 10.0 mi NE 4.6 mph - N/A   Clear
7:12 PM 33.8 °F 24.8 °F 14.0 °F 44% 29.90 in 10.0 mi NNE 12.7 mph - N/A   Scattered Clouds
7:32 PM 33.8 °F 30.8 °F 15.8 °F 48% 29.91 in 10.0 mi North 3.5 mph - N/A   Scattered Clouds
7:52 PM 37.4 °F 30.8 °F 21.2 °F 52% 29.90 in 10.0 mi NNW 9.2 mph - N/A   Mostly Cloudy
8:12 PM 37.4 °F 28.9 °F 23.0 °F 56% 29.90 in 10.0 mi NNW 13.8 mph - N/A   Mostly Cloudy
8:32 PM 37.4 °F 28.9 °F 26.6 °F 65% 29.88 in 10.0 mi NNW 13.8 mph 19.6 mph N/A   Scattered Clouds
8:52 PM 37.4 °F 30.3 °F 28.4 °F 70% 29.89 in 10.0 mi NW 10.4 mph - N/A   Scattered Clouds
9:12 PM 37.4 °F 30.3 °F 28.4 °F 70% 29.90 in 10.0 mi NW 10.4 mph 19.6 mph N/A   Mostly Cloudy
9:32 PM 37.4 °F 30.8 °F 26.6 °F 65% 29.90 in 10.0 mi NW 9.2 mph - N/A   Overcast
9:52 PM 37.4 °F 32.1 °F 26.6 °F 65% 29.90 in 10.0 mi NW 6.9 mph - N/A   Overcast
10:12 PM 37.4 °F 30.8 °F 26.6 °F 65% 29.88 in 10.0 mi NW 9.2 mph - N/A   Overcast
10:32 PM 37.4 °F 32.1 °F 26.6 °F 65% 29.88 in 10.0 mi WNW 6.9 mph - N/A   Overcast
10:52 PM 35.6 °F - 26.6 °F 70% 29.88 in 10.0 mi Calm Calm - N/A   Overcast
11:12 PM 35.6 °F - 26.6 °F 70% 29.88 in 10.0 mi Calm Calm - N/A   Overcast
11:32 PM 35.6 °F 31.7 °F 26.6 °F 70% 29.88 in 10.0 mi ESE 4.6 mph - N/A   Overcast
11:52 PM 37.4 °F 34.9 °F 26.6 °F 65% 29.88 in 10.0 mi ESE 3.5 mph - N/A   Overcast